Time;durP1;ratioP1;P1;durP2;ratioP2;P2;SDS_P1;SDS_P2;PMS_P1;PMS_P2;Temp;Humidity;BMP_temperature;BMP_pressure;BME280_temperature;BME280_humidity;BME280_pressure;Samples;Min_cycle;Max_cycle;Signal;HPM_P1;HPM_P2
2022/12/21 00:01:29;;;;;;;36.30;18.35;;;8.80;99.90;;;;;;5034308;28;20040;-67
2022/12/21 00:03:57;;;;;;;32.85;15.95;;;8.80;99.90;;;;;;5072146;28;20048;-67
2022/12/21 00:06:25;;;;;;;28.20;14.63;;;8.80;99.90;;;;;;5071346;28;20463;-68
2022/12/21 00:08:52;;;;;;;37.20;17.83;;;8.80;99.90;;;;;;5070233;28;20057;-68
2022/12/21 00:11:21;;;;;;;32.10;17.23;;;8.80;99.90;;;;;;5054862;28;20072;-68
2022/12/21 00:13:47;;;;;;;33.92;16.45;;;8.80;99.90;;;;;;5034825;28;20442;-67
2022/12/21 00:16:15;;;;;;;26.60;15.75;;;8.80;99.90;;;;;;5037607;28;20558;-67
2022/12/21 00:18:42;;;;;;;25.73;12.73;;;8.70;99.90;;;;;;5072340;28;20050;-68
2022/12/21 00:21:15;;;;;;;22.38;12.02;;;8.80;99.90;;;;;;5072273;28;20040;-67
2022/12/21 00:23:42;;;;;;;24.23;10.95;;;8.80;99.90;;;;;;5055777;28;20493;-68
2022/12/21 00:26:09;;;;;;;31.63;11.13;;;8.80;99.90;;;;;;5052243;28;20550;-68
2022/12/21 00:28:35;;;;;;;24.90;13.10;;;8.70;99.90;;;;;;5071074;28;20382;-68
2022/12/21 00:31:08;;;;;;;33.03;12.63;;;8.60;99.90;;;;;;5072327;28;20093;-68
2022/12/21 00:33:35;;;;;;;30.50;15.35;;;8.50;99.90;;;;;;5072312;28;20123;-68
2022/12/21 00:36:01;;;;;;;27.17;15.60;;;8.40;99.90;;;;;;5070682;28;20078;-68
2022/12/21 00:38:27;;;;;;;31.42;15.35;;;8.40;99.90;;;;;;5071941;28;20044;-68
2022/12/21 00:40:57;;;;;;;30.45;16.85;;;8.40;99.90;;;;;;5055519;28;20041;-68
2022/12/21 00:43:23;;;;;;;29.88;16.08;;;8.40;99.90;;;;;;5049784;28;20097;-68
2022/12/21 00:45:49;;;;;;;32.47;16.85;;;8.40;99.90;;;;;;5049962;28;20079;-68
2022/12/21 00:48:15;;;;;;;38.58;17.90;;;8.40;99.90;;;;;;5046178;28;20076;-67
2022/12/21 00:50:40;;;;;;;34.47;16.70;;;8.40;99.90;;;;;;5070959;28;20047;-67
2022/12/21 00:53:06;;;;;;;34.63;17.55;;;8.40;99.90;;;;;;5071856;28;20040;-67
2022/12/21 00:55:32;;;;;;;33.08;16.73;;;8.40;99.90;;;;;;5040379;28;20037;-67
2022/12/21 00:57:59;;;;;;;35.00;17.33;;;8.30;99.90;;;;;;5054477;28;20044;-67
2022/12/21 01:00:24;;;;;;;34.22;17.40;;;8.30;99.90;;;;;;5055104;28;20561;-67
2022/12/21 01:02:50;;;;;;;37.53;17.50;;;8.30;99.90;;;;;;5071744;28;20113;-67
2022/12/21 01:05:16;;;;;;;39.35;17.95;;;8.40;99.90;;;;;;5069778;28;20061;-68
2022/12/21 01:07:41;;;;;;;42.22;17.60;;;8.30;99.90;;;;;;5070243;28;20393;-68
2022/12/21 01:10:08;;;;;;;35.38;16.88;;;8.30;99.90;;;;;;5071762;28;20044;-67
2022/12/21 01:12:34;;;;;;;40.97;17.23;;;8.30;99.90;;;;;;5071729;28;20086;-68
2022/12/21 01:14:59;;;;;;;37.53;17.15;;;8.30;99.90;;;;;;5071842;28;20072;-68
2022/12/21 01:17:25;;;;;;;36.10;16.90;;;8.30;99.90;;;;;;5053407;28;20496;-68
2022/12/21 01:19:51;;;;;;;39.33;16.65;;;8.30;99.90;;;;;;5071647;28;20040;-67
2022/12/21 01:22:16;;;;;;;38.53;16.15;;;8.30;99.90;;;;;;5053824;28;20450;-68
2022/12/21 01:24:42;;;;;;;39.90;17.33;;;8.40;99.90;;;;;;5067368;28;20045;-67
2022/12/21 01:27:07;;;;;;;31.20;14.32;;;8.30;99.90;;;;;;5061732;28;20045;-67
2022/12/21 01:29:33;;;;;;;32.85;15.30;;;8.20;99.90;;;;;;5071529;28;20036;-67
2022/12/21 01:31:58;;;;;;;35.38;14.80;;;8.20;99.90;;;;;;5071552;28;20041;-67
2022/12/21 01:34:24;;;;;;;33.92;14.18;;;8.20;99.90;;;;;;5071427;28;20051;-68
2022/12/21 01:36:50;;;;;;;30.17;13.43;;;8.10;99.90;;;;;;5070300;28;20033;-67
2022/12/21 01:39:15;;;;;;;34.40;14.45;;;8.20;99.90;;;;;;5054805;28;20048;-67
2022/12/21 01:41:41;;;;;;;37.15;14.93;;;8.20;99.90;;;;;;5071419;28;20220;-67
2022/12/21 01:44:44;;;;;;;29.75;14.15;;;8.10;99.90;;;;;;5063492;28;20079;-67
2022/12/21 01:47:14;;;;;;;30.35;12.98;;;8.10;99.90;;;;;;5061429;28;20076;-67
2022/12/21 01:49:40;;;;;;;27.70;12.85;;;8.20;99.90;;;;;;5072304;28;20392;-67
2022/12/21 01:52:11;;;;;;;26.90;13.13;;;8.20;99.90;;;;;;5056779;28;20041;-67
2022/12/21 01:54:49;;;;;;;29.52;13.10;;;8.20;99.90;;;;;;5069865;28;20435;-67
2022/12/21 01:57:16;;;;;;;25.98;12.95;;;8.10;99.90;;;;;;5053386;28;20043;-67
2022/12/21 01:59:46;;;;;;;26.48;11.80;;;8.20;99.90;;;;;;5058203;28;20531;-67
2022/12/21 02:02:22;;;;;;;30.55;13.13;;;8.20;99.90;;;;;;5073807;28;20045;-67
2022/12/21 02:04:50;;;;;;;25.77;11.65;;;8.20;99.90;;;;;;5057909;28;20060;-67
2022/12/21 02:07:16;;;;;;;23.08;10.80;;;8.20;99.90;;;;;;5073551;28;20045;-67
2022/12/21 02:09:42;;;;;;;27.45;12.13;;;8.20;99.90;;;;;;5075006;28;20521;-67
2022/12/21 02:12:13;;;;;;;31.80;12.60;;;8.20;99.90;;;;;;5073836;28;20072;-67
2022/12/21 02:14:43;;;;;;;29.50;12.65;;;8.10;99.90;;;;;;5074726;28;20045;-67
2022/12/21 02:17:36;;;;;;;28.88;12.15;;;8.10;99.90;;;;;;5072979;28;20557;-67
2022/12/21 02:20:45;;;;;;;27.73;13.18;;;8.20;99.90;;;;;;5058221;28;20040;-67
2022/12/21 02:23:48;;;;;;;23.30;12.45;;;8.30;99.90;;;;;;5028085;28;20180;-67
2022/12/21 02:26:39;;;;;;;25.98;11.88;;;8.30;99.90;;;;;;5060822;28;20041;-67
2022/12/21 02:29:32;;;;;;;20.08;10.35;;;8.30;99.90;;;;;;5057347;28;20053;-68
2022/12/21 02:32:17;;;;;;;17.30;8.82;;;8.40;99.90;;;;;;5049789;28;20121;-67
2022/12/21 02:35:16;;;;;;;18.58;9.15;;;8.40;99.90;;;;;;5054428;28;20070;-67
2022/12/21 02:37:48;;;;;;;21.88;8.70;;;8.30;99.90;;;;;;5073102;28;20040;-67
2022/12/21 02:40:20;;;;;;;20.00;8.98;;;8.20;99.90;;;;;;5074159;28;20125;-67
2022/12/21 02:46:13;;;;;;;21.52;9.80;;;8.20;99.90;;;;;;5072511;28;20505;-67
2022/12/21 02:48:55;;;;;;;32.60;9.77;;;8.10;99.90;;;;;;5061582;28;20118;-67
2022/12/21 02:51:28;;;;;;;21.73;10.50;;;8.10;99.90;;;;;;5047145;28;20797;-68
2022/12/21 02:53:54;;;;;;;22.98;9.73;;;8.00;99.90;;;;;;5056779;28;20404;-67
2022/12/21 02:56:20;;;;;;;21.13;9.38;;;8.00;99.90;;;;;;5055407;28;20040;-67
2022/12/21 02:58:46;;;;;;;20.08;9.73;;;8.10;99.90;;;;;;5037259;28;20045;-67
2022/12/21 03:01:36;;;;;;;19.70;8.93;;;8.20;99.90;;;;;;5053995;28;20045;-68
2022/12/21 03:04:20;;;;;;;17.98;9.07;;;8.30;99.90;;;;;;5054190;28;20564;-67
2022/12/21 03:07:14;;;;;;;18.88;8.75;;;8.20;99.90;;;;;;5055575;28;20040;-68
2022/12/21 03:09:52;;;;;;;17.20;8.88;;;8.20;99.90;;;;;;5073684;28;20040;-68
2022/12/21 03:12:20;;;;;;;16.13;8.52;;;8.20;99.90;;;;;;5033888;28;20099;-67
2022/12/21 03:15:04;;;;;;;21.08;9.15;;;8.20;99.90;;;;;;5033617;28;20041;-67
2022/12/21 03:17:52;;;;;;;16.60;8.40;;;8.20;99.90;;;;;;5064926;28;20083;-68
2022/12/21 03:20:35;;;;;;;20.00;9.30;;;8.10;99.90;;;;;;5025973;28;20051;-67
2022/12/21 03:23:09;;;;;;;18.63;8.45;;;8.10;99.90;;;;;;5050466;28;20045;-67
2022/12/21 03:25:38;;;;;;;15.70;7.80;;;8.10;99.90;;;;;;5051245;28;20082;-68
2022/12/21 03:28:11;;;;;;;15.25;7.43;;;8.10;99.90;;;;;;5052381;28;20120;-68
2022/12/21 03:30:45;;;;;;;16.13;8.88;;;8.20;99.90;;;;;;5053341;28;20041;-67
2022/12/21 03:33:16;;;;;;;16.65;8.63;;;8.10;99.90;;;;;;5052263;28;20061;-68
2022/12/21 03:35:53;;;;;;;15.88;7.82;;;8.10;99.90;;;;;;5036713;28;20414;-67
2022/12/21 03:38:24;;;;;;;14.90;7.88;;;8.10;99.90;;;;;;5052169;28;20041;-67
2022/12/21 03:40:54;;;;;;;16.50;7.45;;;8.00;99.90;;;;;;5053080;28;20104;-68
2022/12/21 03:43:31;;;;;;;17.48;9.73;;;8.00;99.90;;;;;;5051959;28;20496;-67
2022/12/21 03:46:04;;;;;;;16.83;8.50;;;7.90;99.90;;;;;;5033029;28;20041;-67
2022/12/21 03:48:40;;;;;;;19.30;9.10;;;7.80;99.90;;;;;;5050191;28;20102;-67
2022/12/21 03:51:30;;;;;;;16.50;8.02;;;7.90;99.90;;;;;;5036505;28;20382;-67
2022/12/21 03:54:05;;;;;;;15.63;7.28;;;7.90;99.90;;;;;;5051881;28;20087;-67
2022/12/21 03:56:34;;;;;;;15.18;7.28;;;7.90;99.90;;;;;;5033794;28;20068;-68
2022/12/21 03:59:00;;;;;;;15.55;7.82;;;7.80;99.90;;;;;;5045946;28;20420;-68
2022/12/21 04:01:48;;;;;;;16.92;8.10;;;7.80;99.90;;;;;;5071311;28;20032;-67
2022/12/21 04:04:24;;;;;;;14.25;7.82;;;7.80;99.90;;;;;;5053153;28;20052;-67
2022/12/21 04:06:52;;;;;;;14.95;6.97;;;7.80;99.90;;;;;;5071359;28;20049;-67
2022/12/21 04:09:18;;;;;;;15.63;8.50;;;7.80;99.90;;;;;;5050243;28;20120;-67
2022/12/21 04:14:28;;;;;;;20.65;8.88;;;7.70;99.90;;;;;;5063809;28;20036;-67
2022/12/21 04:16:54;;;;;;;18.23;7.50;;;7.80;99.90;;;;;;5056697;28;20086;-67
2022/12/21 04:22:04;;;;;;;19.23;7.38;;;7.80;99.90;;;;;;5047704;28;20052;-67
2022/12/21 04:29:57;;;;;;;15.82;7.72;;;7.70;99.90;;;;;;5061909;28;20040;-67
2022/12/21 04:32:23;;;;;;;19.13;8.20;;;7.70;99.90;;;;;;5038134;28;20052;-67
2022/12/21 04:34:48;;;;;;;17.15;8.48;;;7.70;99.90;;;;;;5061168;28;20036;-67
2022/12/21 04:37:35;;;;;;;15.90;7.95;;;7.70;99.90;;;;;;5043198;28;20103;-68
2022/12/21 04:40:01;;;;;;;15.95;7.10;;;7.70;99.90;;;;;;5015845;28;20034;-67
2022/12/21 04:42:27;;;;;;;15.30;6.72;;;7.60;99.90;;;;;;5042732;28;20041;-68
2022/12/21 04:44:53;;;;;;;13.15;7.00;;;7.70;99.90;;;;;;5035393;28;20500;-67
2022/12/21 04:47:18;;;;;;;16.42;7.47;;;7.80;99.90;;;;;;5067577;28;20044;-67
2022/12/21 04:49:44;;;;;;;16.48;7.30;;;7.60;99.90;;;;;;5053930;28;20033;-67
2022/12/21 04:52:09;;;;;;;17.77;7.03;;;7.60;99.90;;;;;;5056370;28;20037;-68
2022/12/21 04:54:35;;;;;;;16.40;7.43;;;7.50;99.90;;;;;;5048652;28;20587;-67
2022/12/21 04:57:01;;;;;;;16.63;7.40;;;7.50;99.90;;;;;;5050781;28;20033;-67
2022/12/21 04:59:26;;;;;;;16.60;7.68;;;7.50;99.90;;;;;;5055357;28;20089;-68
2022/12/21 05:01:52;;;;;;;17.75;8.23;;;7.60;99.90;;;;;;5049848;28;20540;-68
2022/12/21 05:04:17;;;;;;;17.88;7.85;;;7.60;99.90;;;;;;5064252;28;20068;-67
2022/12/21 05:06:43;;;;;;;16.40;7.43;;;7.60;99.90;;;;;;5053213;28;20071;-67
2022/12/21 05:09:12;;;;;;;18.88;8.00;;;7.60;99.90;;;;;;5054035;28;20496;-68
2022/12/21 05:11:38;;;;;;;17.63;8.10;;;7.60;99.90;;;;;;5042926;28;20115;-68
2022/12/21 05:14:03;;;;;;;18.83;7.38;;;7.60;99.90;;;;;;5071638;28;20128;-68
2022/12/21 05:16:29;;;;;;;20.75;9.30;;;7.60;99.90;;;;;;5055099;28;20044;-67
2022/12/21 05:18:56;;;;;;;19.90;8.95;;;7.60;99.90;;;;;;5067069;28;20044;-67
2022/12/21 05:21:22;;;;;;;19.17;9.15;;;7.60;99.90;;;;;;5056008;28;20072;-67
2022/12/21 05:23:48;;;;;;;18.42;9.68;;;7.50;99.90;;;;;;5023338;28;20504;-67
2022/12/21 05:26:14;;;;;;;17.50;9.30;;;7.50;99.90;;;;;;5036438;28;20040;-67
2022/12/21 05:28:40;;;;;;;22.77;8.68;;;7.40;99.90;;;;;;5055252;28;20127;-67
2022/12/21 05:31:07;;;;;;;23.40;10.05;;;7.50;99.90;;;;;;5043220;28;20128;-67
2022/12/21 05:33:32;;;;;;;21.95;9.00;;;7.50;99.90;;;;;;5048883;28;20548;-67
2022/12/21 05:36:04;;;;;;;20.73;9.35;;;7.50;99.90;;;;;;5060614;28;20127;-67
2022/12/21 05:38:30;;;;;;;20.70;8.82;;;7.60;99.90;;;;;;5057685;28;20048;-69
2022/12/21 05:40:56;;;;;;;17.33;9.15;;;7.60;99.90;;;;;;5049248;28;20044;-67
2022/12/21 05:43:21;;;;;;;19.63;9.27;;;7.50;99.90;;;;;;5073925;28;20472;-67
2022/12/21 05:45:48;;;;;;;18.70;9.90;;;7.50;99.90;;;;;;5038834;28;20037;-67
2022/12/21 05:48:13;;;;;;;18.52;9.95;;;7.50;99.90;;;;;;5054949;28;20045;-67
2022/12/21 05:50:40;;;;;;;22.02;10.50;;;7.50;99.90;;;;;;5053925;28;20040;-67
2022/12/21 05:53:06;;;;;;;19.45;9.70;;;7.50;99.90;;;;;;5069458;28;20116;-67
2022/12/21 05:55:32;;;;;;;20.63;10.68;;;7.50;99.90;;;;;;5067400;28;20048;-67
2022/12/21 05:57:58;;;;;;;20.52;10.00;;;7.50;99.90;;;;;;5052457;28;20041;-67
2022/12/21 06:00:24;;;;;;;22.92;12.15;;;7.50;99.90;;;;;;5049633;28;20175;-68
2022/12/21 06:02:49;;;;;;;24.85;11.95;;;7.40;99.90;;;;;;5035759;28;20127;-68
2022/12/21 06:05:15;;;;;;;24.17;12.00;;;7.40;99.90;;;;;;5053016;28;20436;-67
2022/12/21 06:07:40;;;;;;;24.35;12.13;;;7.40;99.90;;;;;;5036889;28;20098;-68
2022/12/21 06:10:07;;;;;;;26.55;11.85;;;7.40;99.90;;;;;;5058207;28;20044;-67
2022/12/21 06:12:34;;;;;;;23.15;12.32;;;7.30;99.90;;;;;;5053973;28;20036;-68
2022/12/21 06:15:00;;;;;;;25.35;12.40;;;7.30;99.90;;;;;;5053714;28;20039;-67
2022/12/21 06:17:30;;;;;;;26.02;12.70;;;7.30;99.90;;;;;;5043412;28;20047;-67
2022/12/21 06:19:55;;;;;;;24.95;13.27;;;7.40;99.90;;;;;;5067605;28;20060;-68
2022/12/21 06:22:21;;;;;;;26.08;12.63;;;7.40;99.90;;;;;;5066856;28;20130;-68
2022/12/21 06:24:46;;;;;;;27.95;13.18;;;7.40;99.90;;;;;;5066160;28;20404;-68
2022/12/21 06:27:12;;;;;;;22.50;11.38;;;7.50;99.90;;;;;;5044351;28;20037;-68
2022/12/21 06:29:37;;;;;;;21.70;11.50;;;7.50;99.90;;;;;;5058381;28;20043;-68
2022/12/21 06:32:03;;;;;;;21.08;10.68;;;7.50;99.90;;;;;;5059784;28;20119;-68
2022/12/21 06:34:29;;;;;;;25.35;11.05;;;7.60;99.90;;;;;;5057798;28;20123;-68
2022/12/21 06:36:54;;;;;;;21.40;10.65;;;7.50;99.90;;;;;;5044864;28;20032;-68
2022/12/21 06:39:20;;;;;;;22.35;11.85;;;7.40;99.90;;;;;;5046007;28;20489;-68
2022/12/21 06:41:46;;;;;;;22.08;11.23;;;7.40;99.90;;;;;;5053029;28;20049;-68
2022/12/21 06:44:11;;;;;;;21.50;11.93;;;7.40;99.90;;;;;;5057155;28;20123;-68
2022/12/21 06:46:37;;;;;;;24.83;12.80;;;7.40;99.90;;;;;;5035911;28;20041;-68
2022/12/21 06:49:03;;;;;;;22.10;11.80;;;7.40;99.90;;;;;;5040064;28;20037;-68
2022/12/21 06:51:28;;;;;;;27.50;12.63;;;7.30;99.90;;;;;;5067865;28;20501;-68
2022/12/21 06:53:54;;;;;;;25.33;13.90;;;7.30;99.90;;;;;;5060749;28;20124;-68
2022/12/21 06:56:22;;;;;;;25.90;13.13;;;7.30;99.90;;;;;;5039492;28;20401;-68
2022/12/21 06:58:49;;;;;;;26.30;13.73;;;7.30;99.90;;;;;;5066376;28;20033;-68
2022/12/21 07:01:26;;;;;;;28.30;14.55;;;7.30;99.90;;;;;;5061077;28;20060;-68
2022/12/21 07:03:53;;;;;;;25.23;13.60;;;7.30;99.90;;;;;;5051905;28;20032;-68
2022/12/21 07:06:20;;;;;;;26.63;14.13;;;7.30;99.90;;;;;;5047703;28;20516;-67
2022/12/21 07:08:47;;;;;;;29.70;13.45;;;7.20;99.90;;;;;;5055705;28;20095;-68
2022/12/21 07:11:15;;;;;;;25.80;13.98;;;7.30;99.90;;;;;;5058413;28;20037;-68
2022/12/21 07:13:43;;;;;;;25.63;13.93;;;7.40;99.90;;;;;;5069259;28;20041;-73
2022/12/21 07:16:10;;;;;;;29.05;14.20;;;7.40;99.90;;;;;;5060388;28;20040;-68
2022/12/21 07:18:36;;;;;;;29.80;14.65;;;7.40;99.90;;;;;;5047516;28;20112;-68
2022/12/21 07:21:05;;;;;;;30.00;14.60;;;7.50;99.90;;;;;;5065989;28;20174;-68
2022/12/21 07:23:32;;;;;;;28.50;14.13;;;7.50;99.90;;;;;;5061436;28;20443;-68
2022/12/21 07:25:58;;;;;;;32.15;15.32;;;7.50;99.90;;;;;;5032192;28;20065;-68
2022/12/21 07:28:24;;;;;;;32.75;14.77;;;7.60;99.90;;;;;;5069042;28;20566;-68
2022/12/21 07:31:05;;;;;;;28.10;14.38;;;7.60;99.90;;;;;;5056521;28;20485;-68
2022/12/21 07:33:31;;;;;;;38.65;15.48;;;7.60;99.90;;;;;;5052402;28;20051;-68
2022/12/21 07:36:02;;;;;;;35.63;15.93;;;7.60;99.90;;;;;;5073109;28;20036;-68
2022/12/21 07:38:28;;;;;;;31.83;15.13;;;7.60;99.90;;;;;;5055320;28;20489;-68
2022/12/21 07:41:01;;;;;;;35.35;15.32;;;7.60;99.90;;;;;;5038765;28;20451;-68
2022/12/21 07:43:27;;;;;;;30.73;14.75;;;7.70;99.90;;;;;;5064095;28;20188;-68
2022/12/21 07:45:53;;;;;;;37.67;17.05;;;7.70;99.90;;;;;;5055475;28;20382;-68
2022/12/21 07:48:19;;;;;;;34.10;15.13;;;7.70;99.90;;;;;;5051928;28;20115;-68
2022/12/21 07:50:46;;;;;;;35.50;15.38;;;7.70;99.90;;;;;;5072873;28;20039;-68
2022/12/21 07:53:12;;;;;;;33.20;15.43;;;7.70;99.90;;;;;;5051748;28;20051;-68
2022/12/21 07:55:38;;;;;;;36.63;16.90;;;7.80;99.90;;;;;;5072759;28;20555;-68
2022/12/21 07:58:03;;;;;;;33.13;15.88;;;7.80;99.90;;;;;;5070879;28;20046;-68
2022/12/21 08:00:29;;;;;;;38.72;17.73;;;7.80;99.90;;;;;;5072565;28;20489;-68
2022/12/21 08:02:54;;;;;;;38.30;15.82;;;7.70;99.90;;;;;;5051367;28;20127;-68
2022/12/21 08:05:20;;;;;;;36.75;15.73;;;7.70;99.90;;;;;;5048273;28;20053;-68
2022/12/21 08:07:47;;;;;;;35.92;16.40;;;7.80;99.90;;;;;;5045900;28;20033;-68
2022/12/21 08:10:13;;;;;;;34.90;15.07;;;7.80;99.90;;;;;;5055966;28;20044;-68
2022/12/21 08:12:39;;;;;;;35.63;14.80;;;7.80;99.90;;;;;;5072781;28;20044;-68
2022/12/21 08:15:05;;;;;;;39.83;17.23;;;7.70;99.90;;;;;;5072288;28;20051;-68
2022/12/21 08:17:30;;;;;;;33.38;16.80;;;7.80;99.90;;;;;;5070840;28;20496;-68
2022/12/21 08:19:56;;;;;;;38.30;16.58;;;7.70;99.90;;;;;;5072492;28;20036;-68
2022/12/21 08:22:22;;;;;;;36.45;16.42;;;7.70;99.90;;;;;;5069818;28;20043;-68
2022/12/21 08:24:48;;;;;;;33.33;15.30;;;7.80;99.90;;;;;;5072310;28;20044;-68
2022/12/21 08:27:14;;;;;;;33.30;15.57;;;7.80;99.90;;;;;;5053304;28;20048;-68
2022/12/21 08:29:39;;;;;;;33.20;16.20;;;7.80;99.90;;;;;;5072104;28;20074;-68
2022/12/21 08:32:05;;;;;;;40.85;16.35;;;7.80;99.90;;;;;;5072093;28;20082;-68
2022/12/21 08:34:30;;;;;;;35.53;16.27;;;7.80;99.90;;;;;;5055463;28;20033;-68
2022/12/21 08:36:56;;;;;;;38.88;16.48;;;7.80;99.90;;;;;;5040910;28;20033;-68
2022/12/21 08:39:22;;;;;;;36.33;15.80;;;7.80;99.90;;;;;;5051064;28;20049;-68
2022/12/21 08:41:47;;;;;;;30.45;14.70;;;7.80;99.90;;;;;;5060433;28;20450;-68
2022/12/21 08:44:13;;;;;;;31.35;14.13;;;8.00;99.90;;;;;;5067766;28;20045;-68
2022/12/21 08:46:39;;;;;;;33.78;16.23;;;7.90;99.90;;;;;;5032596;28;20049;-68
2022/12/21 08:49:04;;;;;;;32.28;13.80;;;7.90;99.90;;;;;;5068369;28;20051;-68
2022/12/21 08:51:30;;;;;;;33.33;15.13;;;7.90;99.90;;;;;;5068806;28;20064;-68
2022/12/21 08:53:56;;;;;;;27.85;12.80;;;8.00;99.90;;;;;;5050117;28;20128;-68
2022/12/21 08:56:22;;;;;;;31.17;15.50;;;7.90;99.90;;;;;;5035358;28;20029;-68
2022/12/21 08:58:48;;;;;;;28.17;12.20;;;7.90;99.90;;;;;;5051524;28;20044;-68
2022/12/21 09:01:18;;;;;;;33.25;14.70;;;8.00;99.90;;;;;;5051615;28;20409;-68
2022/12/21 09:03:43;;;;;;;30.13;14.00;;;8.00;99.90;;;;;;5033617;28;20044;-68
2022/12/21 09:06:09;;;;;;;36.17;15.23;;;8.00;99.90;;;;;;5035098;28;20064;-68
2022/12/21 09:08:35;;;;;;;32.10;16.50;;;7.90;99.90;;;;;;5050307;28;20452;-68
2022/12/21 09:11:07;;;;;;;35.13;16.25;;;7.90;99.90;;;;;;5048809;28;20119;-68
2022/12/21 09:13:32;;;;;;;31.20;14.68;;;8.00;99.90;;;;;;5051984;28;20451;-68
2022/12/21 09:15:58;;;;;;;33.92;14.27;;;7.90;99.90;;;;;;5050123;28;20037;-68
2022/12/21 09:18:24;;;;;;;42.03;16.70;;;8.00;99.90;;;;;;5051534;28;20128;-68
2022/12/21 09:20:49;;;;;;;41.30;16.75;;;8.00;99.90;;;;;;5051517;28;20460;-68
2022/12/21 09:23:15;;;;;;;39.58;16.63;;;8.00;99.90;;;;;;5051589;28;20045;-68
2022/12/21 09:25:41;;;;;;;38.28;16.38;;;8.00;99.90;;;;;;5051611;28;20516;-68
2022/12/21 09:28:07;;;;;;;41.58;18.50;;;8.00;99.90;;;;;;5051495;28;20076;-68
2022/12/21 09:30:32;;;;;;;41.40;17.63;;;8.10;99.90;;;;;;5050336;28;20068;-68
2022/12/21 09:32:58;;;;;;;38.92;16.85;;;8.10;99.90;;;;;;5051395;28;20037;-68
2022/12/21 09:35:23;;;;;;;41.30;18.45;;;8.10;99.90;;;;;;5051515;28;20083;-68
2022/12/21 09:37:49;;;;;;;38.83;16.95;;;8.20;99.90;;;;;;5051271;28;20033;-68
2022/12/21 09:40:18;;;;;;;35.97;17.35;;;8.20;99.90;;;;;;5051243;28;20052;-68
2022/12/21 09:42:47;;;;;;;39.25;18.20;;;8.30;99.90;;;;;;5034750;28;20056;-68
2022/12/21 09:45:20;;;;;;;39.90;17.45;;;8.30;99.90;;;;;;5034833;28;20044;-68
2022/12/21 09:47:59;;;;;;;41.42;18.63;;;8.30;99.90;;;;;;5034633;28;20493;-68
2022/12/21 09:50:36;;;;;;;43.75;18.85;;;8.30;99.90;;;;;;5051279;28;20041;-68
2022/12/21 09:53:11;;;;;;;34.80;17.58;;;8.30;99.90;;;;;;5051643;28;20398;-68
2022/12/21 09:55:43;;;;;;;37.45;16.30;;;8.30;99.90;;;;;;5051251;28;20570;-68
2022/12/21 09:58:14;;;;;;;37.28;17.30;;;8.40;99.90;;;;;;5051404;28;20041;-68
2022/12/21 10:00:45;;;;;;;31.73;15.63;;;8.30;99.90;;;;;;5051179;28;20056;-68
2022/12/21 10:03:50;;;;;;;40.20;17.77;;;8.30;99.90;;;;;;5051341;28;20090;-68
2022/12/21 10:06:40;;;;;;;35.35;16.25;;;8.30;99.90;;;;;;5051535;28;20080;-68
2022/12/21 10:09:30;;;;;;;36.00;16.05;;;8.40;99.90;;;;;;5051213;28;20045;-68
2022/12/21 10:12:23;;;;;;;37.03;16.52;;;8.40;99.90;;;;;;5036697;28;20044;-68
2022/12/21 10:15:13;;;;;;;31.40;15.23;;;8.40;99.90;;;;;;5037207;28;20083;-68
2022/12/21 10:18:07;;;;;;;30.60;15.05;;;8.30;99.90;;;;;;5053735;28;20540;-68
2022/12/21 10:20:35;;;;;;;34.13;14.65;;;8.40;99.90;;;;;;5055818;28;20501;-68
2022/12/21 10:23:04;;;;;;;27.05;13.60;;;8.40;99.90;;;;;;5054570;28;20033;-68
2022/12/21 10:25:44;;;;;;;32.50;13.35;;;8.40;99.90;;;;;;5037978;28;20079;-68
2022/12/21 10:28:34;;;;;;;34.55;16.42;;;8.40;99.90;;;;;;5054426;28;20508;-68
2022/12/21 10:31:04;;;;;;;29.58;14.27;;;8.30;99.90;;;;;;5054684;28;20099;-68
2022/12/21 10:33:30;;;;;;;34.28;15.98;;;8.30;99.90;;;;;;5054679;28;20416;-68
2022/12/21 10:36:02;;;;;;;31.80;15.05;;;8.30;99.90;;;;;;5054414;28;20045;-68
2022/12/21 10:38:31;;;;;;;36.15;15.30;;;8.40;99.90;;;;;;5054627;28;20388;-68
2022/12/21 10:40:58;;;;;;;31.95;13.73;;;8.40;99.90;;;;;;5037892;28;20052;-69
2022/12/21 10:43:24;;;;;;;29.90;13.80;;;8.30;99.90;;;;;;5052910;28;20041;-68
2022/12/21 10:45:49;;;;;;;35.92;15.00;;;8.30;99.90;;;;;;5054365;28;20106;-68
2022/12/21 10:48:15;;;;;;;31.45;16.13;;;8.30;99.90;;;;;;5053989;28;20087;-68
2022/12/21 10:50:45;;;;;;;25.63;12.45;;;8.30;99.90;;;;;;5054172;28;20033;-68
2022/12/21 10:53:26;;;;;;;31.65;14.40;;;8.30;99.90;;;;;;5037682;28;20052;-68
2022/12/21 10:55:56;;;;;;;28.90;14.07;;;8.40;99.90;;;;;;5054071;28;20139;-68
2022/12/21 10:58:31;;;;;;;32.63;14.10;;;8.40;99.90;;;;;;5036727;28;20617;-68
2022/12/21 11:01:15;;;;;;;30.67;13.90;;;8.30;99.90;;;;;;5034112;28;20046;-68
2022/12/21 11:03:40;;;;;;;34.17;16.58;;;8.30;99.90;;;;;;5033887;28;20045;-68
2022/12/21 11:06:18;;;;;;;34.20;15.00;;;8.30;99.90;;;;;;5033718;28;20079;-69
2022/12/21 11:08:52;;;;;;;34.35;14.88;;;8.40;99.90;;;;;;5033881;28;20068;-68
2022/12/21 11:11:35;;;;;;;33.75;15.32;;;8.30;99.90;;;;;;5033939;28;20041;-68
2022/12/21 11:14:10;;;;;;;33.42;15.82;;;8.40;99.90;;;;;;5033977;28;20409;-68
2022/12/21 11:16:36;;;;;;;38.78;15.07;;;8.40;99.90;;;;;;5017014;28;20044;-68
2022/12/21 11:19:02;;;;;;;35.40;16.38;;;8.40;99.90;;;;;;5041284;28;20123;-68
2022/12/21 11:21:39;;;;;;;33.50;14.10;;;8.40;99.90;;;;;;5057218;28;20037;-68
2022/12/21 11:24:10;;;;;;;31.42;13.38;;;8.50;99.90;;;;;;5049129;28;20032;-69
2022/12/21 11:26:42;;;;;;;33.65;15.57;;;8.50;99.90;;;;;;5073584;28;20040;-68
2022/12/21 11:29:20;;;;;;;33.53;15.18;;;8.60;99.90;;;;;;5047549;28;20129;-68
2022/12/21 11:31:47;;;;;;;31.30;13.93;;;8.50;99.90;;;;;;5032817;28;20045;-68
2022/12/21 11:34:36;;;;;;;32.80;13.98;;;8.50;99.90;;;;;;5066349;28;20037;-68
2022/12/21 11:37:05;;;;;;;33.35;14.43;;;8.50;99.90;;;;;;5049954;28;20120;-68
2022/12/21 11:39:31;;;;;;;23.08;8.88;;;8.60;99.90;;;;;;5033398;28;20054;-68
2022/12/21 11:41:56;;;;;;;26.80;12.75;;;8.60;99.90;;;;;;5035487;28;20043;-68
2022/12/21 11:44:24;;;;;;;34.63;14.00;;;8.70;99.90;;;;;;5035541;28;20041;-68
2022/12/21 11:47:04;;;;;;;32.92;13.88;;;8.60;99.90;;;;;;5052761;28;20044;-68
2022/12/21 11:49:44;;;;;;;30.92;13.38;;;8.60;99.90;;;;;;5056162;28;20127;-68
2022/12/21 11:52:19;;;;;;;30.05;15.00;;;8.70;99.90;;;;;;5043678;28;20033;-69
2022/12/21 11:55:00;;;;;;;33.45;12.13;;;8.60;99.90;;;;;;5061621;28;20078;-68
2022/12/21 11:57:36;;;;;;;32.85;13.45;;;8.70;99.90;;;;;;5032939;28;20087;-68
2022/12/21 12:00:06;;;;;;;31.42;14.20;;;8.80;99.90;;;;;;5052363;28;20029;-68
2022/12/21 12:03:02;;;;;;;37.30;16.38;;;8.80;99.90;;;;;;5051756;28;20114;-68
2022/12/21 12:05:55;;;;;;;25.00;10.85;;;8.80;99.90;;;;;;5063858;28;20128;-68
2022/12/21 12:08:42;;;;;;;32.28;14.68;;;8.90;99.90;;;;;;5055805;28;20051;-69
2022/12/21 12:11:31;;;;;;;25.58;12.38;;;8.90;99.90;;;;;;5032815;28;20110;-68
2022/12/21 12:14:21;;;;;;;29.67;12.13;;;8.90;99.90;;;;;;5035005;28;20064;-68
2022/12/21 12:17:12;;;;;;;31.70;11.77;;;8.90;99.90;;;;;;5052423;28;20496;-68
2022/12/21 12:20:14;;;;;;;32.95;13.98;;;9.00;99.90;;;;;;5051391;28;20444;-68
2022/12/21 12:23:17;;;;;;;28.05;11.50;;;8.90;99.90;;;;;;5034813;28;20417;-68
2022/12/21 12:25:58;;;;;;;34.28;12.95;;;9.00;99.90;;;;;;5029107;28;20045;-68
2022/12/21 12:28:32;;;;;;;32.65;13.55;;;9.00;99.90;;;;;;5016011;28;20501;-68
2022/12/21 12:30:58;;;;;;;32.83;14.05;;;9.00;99.90;;;;;;5050631;28;20098;-68
2022/12/21 12:33:30;;;;;;;35.45;14.50;;;9.00;99.90;;;;;;5039070;28;20127;-68
2022/12/21 12:36:01;;;;;;;;;;;9.00;99.90;;;;;;5036442;28;20086;-68
2022/12/21 12:38:39;;;;;;;34.40;14.45;;;9.00;99.90;;;;;;5048792;28;19916;-68
2022/12/21 12:41:23;;;;;;;31.23;12.88;;;9.00;99.90;;;;;;5055779;28;20040;-69
2022/12/21 12:44:06;;;;;;;34.67;13.70;;;9.00;99.90;;;;;;5060131;28;20048;-68
2022/12/21 12:46:53;;;;;;;29.73;13.88;;;9.10;99.90;;;;;;5039105;28;20491;-68
2022/12/21 12:49:28;;;;;;;35.17;14.82;;;9.00;99.90;;;;;;5058275;28;20045;-69
2022/12/21 12:52:27;;;;;;;33.70;14.50;;;9.00;99.90;;;;;;5065919;28;20042;-68
2022/12/21 12:54:52;;;;;;;27.88;11.48;;;9.00;99.90;;;;;;5052213;28;20079;-68
2022/12/21 12:57:42;;;;;;;33.25;14.00;;;9.00;99.90;;;;;;5051885;28;20073;-68
2022/12/21 13:00:11;;;;;;;28.52;13.05;;;8.90;99.90;;;;;;5035077;28;20045;-68
2022/12/21 13:02:42;;;;;;;28.55;12.63;;;8.90;99.90;;;;;;5022880;28;20041;-68
2022/12/21 13:05:49;;;;;;;29.90;14.00;;;9.00;99.90;;;;;;5055214;28;20416;-68
2022/12/21 13:08:51;;;;;;;27.45;11.43;;;8.90;99.90;;;;;;5025427;28;20080;-68
2022/12/21 13:11:32;;;;;;;29.25;11.88;;;9.00;99.90;;;;;;5048586;28;20037;-68
2022/12/21 13:14:16;;;;;;;29.02;12.93;;;9.00;99.90;;;;;;5053827;28;20370;-68
2022/12/21 13:17:22;;;;;;;27.85;11.65;;;9.00;99.90;;;;;;5064404;28;20526;-68